Time;durP1;ratioP1;P1;durP2;ratioP2;P2;SDS_P1;SDS_P2;PMS_P1;PMS_P2;Temp;Humidity;BMP_temperature;BMP_pressure;BME280_temperature;BME280_humidity;BME280_pressure;Samples;Min_cycle;Max_cycle;Signal;HPM_P1;HPM_P2
2020/12/18 00:01:31;;;;;;;4.72;1.65;;;27.50;78.70;;;;;;5094169;28;20103;-60
2020/12/18 00:04:01;;;;;;;5.20;1.30;;;27.40;78.90;;;;;;5093900;28;20020;-61
2020/12/18 00:06:36;;;;;;;3.28;1.40;;;27.40;79.10;;;;;;5093962;28;20110;-60
2020/12/18 00:09:06;;;;;;;4.25;1.10;;;27.30;79.60;;;;;;5093916;28;20176;-60
2020/12/18 00:11:33;;;;;;;4.70;1.20;;;27.20;79.20;;;;;;5093759;28;20028;-58
2020/12/18 00:14:00;;;;;;;11.18;1.52;;;27.20;80.10;;;;;;5093468;28;20039;-59
2020/12/18 00:16:28;;;;;;;3.17;1.00;;;27.10;80.20;;;;;;5093861;28;20027;-62
2020/12/18 00:18:55;;;;;;;4.68;1.00;;;27.10;80.70;;;;;;5093414;28;20078;-61
2020/12/18 00:21:24;;;;;;;4.03;1.73;;;27.10;81.60;;;;;;5093791;28;20116;-62
2020/12/18 00:23:52;;;;;;;3.63;1.13;;;27.00;81.00;;;;;;5093862;28;20553;-60
2020/12/18 00:26:20;;;;;;;3.67;1.33;;;27.00;80.90;;;;;;5093113;28;20051;-59
2020/12/18 00:28:48;;;;;;;5.57;1.38;;;26.90;81.10;;;;;;5093072;28;20114;-57
2020/12/18 00:31:16;;;;;;;3.72;1.17;;;26.90;81.50;;;;;;5093074;28;20135;-59
2020/12/18 00:33:44;;;;;;;2.38;1.00;;;26.80;81.40;;;;;;5092516;28;20131;-61
2020/12/18 00:36:12;;;;;;;5.35;1.85;;;26.80;82.00;;;;;;5092784;28;20066;-66
2020/12/18 00:38:40;;;;;;;2.70;1.20;;;26.50;82.40;;;;;;5113719;28;20027;-67
2020/12/18 00:41:08;;;;;;;2.40;1.33;;;26.50;82.60;;;;;;5114183;28;20020;-64
2020/12/18 00:43:35;;;;;;;8.27;1.67;;;26.50;83.20;;;;;;5112520;28;20020;-66
2020/12/18 00:46:06;;;;;;;3.00;1.05;;;26.50;83.20;;;;;;5112265;28;20065;-64
2020/12/18 00:48:34;;;;;;;4.20;1.27;;;26.40;82.70;;;;;;5093939;28;20494;-65
2020/12/18 00:51:01;;;;;;;3.38;0.98;;;26.40;83.20;;;;;;5093109;28;20031;-65
2020/12/18 00:53:29;;;;;;;2.42;1.02;;;26.40;82.80;;;;;;5113363;28;20504;-66
2020/12/18 00:55:56;;;;;;;4.63;1.10;;;26.50;83.20;;;;;;5113849;28;20207;-67
2020/12/18 00:58:24;;;;;;;2.67;1.05;;;26.40;83.20;;;;;;5113325;28;20026;-66
2020/12/18 01:00:51;;;;;;;5.15;1.38;;;26.40;82.80;;;;;;5113679;28;20023;-66
2020/12/18 01:03:18;;;;;;;4.25;1.13;;;26.40;82.50;;;;;;5113429;28;20020;-66
2020/12/18 01:05:46;;;;;;;3.30;0.90;;;26.50;82.90;;;;;;5113684;28;20023;-64
2020/12/18 01:08:13;;;;;;;4.20;1.17;;;26.40;83.00;;;;;;5113547;28;20055;-67
2020/12/18 01:10:41;;;;;;;2.33;1.20;;;26.40;82.80;;;;;;5113279;28;20023;-68
2020/12/18 01:13:08;;;;;;;12.10;2.25;;;26.40;82.70;;;;;;5095158;28;20092;-68
2020/12/18 01:15:35;;;;;;;5.22;1.45;;;26.40;82.30;;;;;;5112790;28;20088;-66
2020/12/18 01:18:03;;;;;;;2.97;1.17;;;26.40;82.50;;;;;;5095083;28;20051;-66
2020/12/18 01:20:30;;;;;;;2.63;1.20;;;26.40;82.30;;;;;;5094562;28;20028;-67
2020/12/18 01:23:01;;;;;;;2.63;1.10;;;26.40;82.60;;;;;;5113161;28;20015;-66
2020/12/18 01:25:28;;;;;;;3.65;0.80;;;26.40;82.50;;;;;;5113656;28;20027;-71
2020/12/18 01:27:55;;;;;;;5.85;1.67;;;26.40;81.90;;;;;;5113585;28;20039;-67
2020/12/18 01:30:23;;;;;;;2.30;1.13;;;26.40;82.30;;;;;;5113399;28;20024;-68
2020/12/18 01:32:50;;;;;;;5.07;1.30;;;26.50;82.20;;;;;;5113575;28;20027;-70
2020/12/18 01:35:18;;;;;;;2.47;1.13;;;26.40;82.00;;;;;;5112488;28;20044;-65
2020/12/18 01:37:45;;;;;;;1.58;0.88;;;26.50;82.00;;;;;;5113064;28;20055;-63
2020/12/18 01:40:12;;;;;;;4.25;1.33;;;26.50;82.40;;;;;;5113151;28;20019;-69
2020/12/18 01:42:40;;;;;;;3.33;1.02;;;26.40;82.80;;;;;;5113216;28;20450;-66
2020/12/18 01:45:07;;;;;;;1.27;0.93;;;26.50;81.60;;;;;;5113069;28;20104;-66
2020/12/18 01:47:34;;;;;;;1.30;0.90;;;26.50;81.70;;;;;;5112836;28;20092;-64
2020/12/18 01:50:03;;;;;;;5.30;0.85;;;26.50;82.10;;;;;;5112853;28;20031;-67
2020/12/18 01:52:33;;;;;;;4.45;1.20;;;26.50;81.90;;;;;;5113079;28;20351;-65
2020/12/18 01:55:07;;;;;;;2.70;0.80;;;26.50;81.10;;;;;;5112593;28;20118;-66
2020/12/18 01:57:36;;;;;;;2.67;0.57;;;26.60;81.30;;;;;;5094319;28;20046;-67
2020/12/18 02:00:07;;;;;;;2.25;1.10;;;26.70;79.40;;;;;;5112554;28;20123;-67
2020/12/18 02:02:35;;;;;;;1.13;0.88;;;26.80;78.80;;;;;;5111907;28;20039;-65
2020/12/18 02:05:02;;;;;;;2.05;0.85;;;26.90;80.50;;;;;;5112721;28;20073;-65
2020/12/18 02:07:30;;;;;;;2.13;0.80;;;26.90;79.80;;;;;;5112359;28;20083;-65
2020/12/18 02:09:58;;;;;;;5.60;1.00;;;27.00;79.50;;;;;;5112870;28;20024;-65
2020/12/18 02:12:26;;;;;;;1.05;0.80;;;27.00;78.50;;;;;;5094547;28;20440;-65
2020/12/18 02:14:53;;;;;;;2.17;0.60;;;27.20;77.60;;;;;;5112596;28;20035;-67
2020/12/18 02:17:22;;;;;;;3.20;0.85;;;27.20;79.20;;;;;;5094215;28;20129;-68
2020/12/18 02:19:54;;;;;;;3.85;0.77;;;27.20;78.20;;;;;;5112479;28;20465;-67
2020/12/18 02:22:25;;;;;;;3.60;0.85;;;27.20;76.60;;;;;;5112405;28;20477;-67
2020/12/18 02:25:07;;;;;;;3.22;1.00;;;27.30;78.40;;;;;;5112683;28;20492;-65
2020/12/18 02:27:36;;;;;;;3.13;1.00;;;27.40;77.90;;;;;;5093776;28;20035;-66
2020/12/18 02:30:08;;;;;;;6.35;0.90;;;27.40;77.50;;;;;;5112397;28;20152;-67
2020/12/18 02:32:36;;;;;;;2.08;0.77;;;27.50;77.60;;;;;;5112866;28;20537;-67
2020/12/18 02:35:06;;;;;;;3.88;0.88;;;27.50;77.90;;;;;;5112962;28;20050;-66
2020/12/18 02:37:34;;;;;;;2.83;1.20;;;27.60;77.00;;;;;;5112108;28;20494;-65
2020/12/18 02:40:03;;;;;;;0.95;0.60;;;27.60;75.90;;;;;;5112849;28;20028;-66
2020/12/18 02:42:30;;;;;;;3.90;0.77;;;27.70;77.10;;;;;;5094143;28;20016;-63
2020/12/18 02:44:58;;;;;;;1.10;0.90;;;27.70;75.20;;;;;;5112275;28;20106;-65
2020/12/18 02:47:25;;;;;;;1.13;0.80;;;27.70;75.70;;;;;;5112298;28;20031;-64
2020/12/18 02:49:52;;;;;;;2.15;1.10;;;27.70;74.90;;;;;;5112452;28;20027;-63
2020/12/18 02:52:20;;;;;;;1.52;0.80;;;27.80;74.30;;;;;;5094079;28;20400;-64
2020/12/18 02:54:47;;;;;;;2.15;1.35;;;27.80;74.70;;;;;;5112575;28;20080;-64
2020/12/18 02:57:14;;;;;;;1.73;0.80;;;27.90;76.00;;;;;;5112398;28;20096;-65
2020/12/18 02:59:42;;;;;;;1.17;0.57;;;28.00;74.90;;;;;;5111741;28;20028;-66
2020/12/18 03:02:09;;;;;;;1.80;0.63;;;27.90;74.50;;;;;;5111810;28;20055;-66
2020/12/18 03:04:37;;;;;;;2.33;0.60;;;28.00;75.10;;;;;;5112814;28;20071;-63
2020/12/18 03:07:04;;;;;;;2.15;0.93;;;28.10;74.40;;;;;;5094592;28;20084;-65
2020/12/18 03:09:31;;;;;;;2.15;0.63;;;28.10;75.40;;;;;;5112199;28;20024;-64
2020/12/18 03:11:59;;;;;;;1.75;0.70;;;28.10;74.40;;;;;;5112083;28;20023;-66
2020/12/18 03:14:26;;;;;;;1.77;0.63;;;28.10;74.10;;;;;;5095552;28;20514;-64
2020/12/18 03:16:54;;;;;;;1.15;0.80;;;28.10;73.90;;;;;;5116101;28;20023;-64
2020/12/18 03:19:21;;;;;;;3.80;1.30;;;28.10;74.20;;;;;;5115774;28;20112;-65
2020/12/18 03:21:48;;;;;;;2.13;0.95;;;28.20;74.10;;;;;;5116127;28;20433;-63
2020/12/18 03:24:16;;;;;;;1.70;0.65;;;28.20;75.30;;;;;;5115832;28;20031;-66
2020/12/18 03:26:43;;;;;;;1.63;0.70;;;28.20;74.50;;;;;;5116109;28;20055;-64
2020/12/18 03:29:10;;;;;;;2.40;0.95;;;28.20;74.60;;;;;;5115587;28;20038;-66
2020/12/18 03:31:38;;;;;;;2.13;1.00;;;28.20;72.50;;;;;;5115074;28;20024;-67
2020/12/18 03:34:06;;;;;;;1.90;0.57;;;28.20;74.90;;;;;;5115798;28;20061;-66
2020/12/18 03:36:36;;;;;;;1.80;0.82;;;28.20;72.30;;;;;;5094754;28;20027;-66
2020/12/18 03:39:06;;;;;;;1.55;0.90;;;28.30;71.90;;;;;;5115399;28;20026;-65
2020/12/18 03:41:34;;;;;;;0.77;0.50;;;28.30;72.00;;;;;;5115550;28;20417;-67
2020/12/18 03:44:02;;;;;;;1.05;0.68;;;28.40;72.60;;;;;;5115281;28;20072;-66
2020/12/18 03:46:29;;;;;;;3.55;0.70;;;28.30;71.30;;;;;;5115377;28;20031;-64
2020/12/18 03:48:56;;;;;;;0.90;0.52;;;28.30;73.10;;;;;;5115718;28;20441;-68
2020/12/18 03:51:24;;;;;;;1.92;0.95;;;28.30;73.80;;;;;;5115484;28;20024;-67
2020/12/18 03:53:51;;;;;;;1.10;0.60;;;28.40;73.10;;;;;;5115830;28;20035;-67
2020/12/18 03:56:19;;;;;;;0.98;0.60;;;28.30;74.20;;;;;;5115795;28;20103;-68
2020/12/18 03:58:46;;;;;;;1.45;0.60;;;28.30;73.00;;;;;;5115495;28;20038;-68
2020/12/18 04:01:13;;;;;;;0.77;0.60;;;28.30;73.00;;;;;;5131128;27;20024;-68
2020/12/18 04:03:41;;;;;;;2.17;0.60;;;28.50;72.20;;;;;;5115634;28;20048;-68
2020/12/18 04:06:08;;;;;;;1.88;0.68;;;28.40;72.50;;;;;;5114956;28;20108;-67
2020/12/18 04:08:35;;;;;;;1.10;0.60;;;28.50;72.40;;;;;;5114932;28;20024;-70
2020/12/18 04:11:03;;;;;;;1.05;0.65;;;28.50;72.20;;;;;;5114981;28;20077;-64
2020/12/18 04:13:30;;;;;;;0.93;0.50;;;28.40;71.50;;;;;;5114356;28;20342;-68
2020/12/18 04:15:58;;;;;;;0.65;0.55;;;28.50;72.00;;;;;;5114812;28;20086;-69
2020/12/18 04:18:25;;;;;;;1.58;0.75;;;28.50;72.70;;;;;;5114707;28;20052;-64
2020/12/18 04:20:56;;;;;;;1.92;0.70;;;28.40;73.40;;;;;;5114245;28;20039;-68
2020/12/18 04:23:24;;;;;;;0.90;0.50;;;28.30;73.10;;;;;;5114343;28;20028;-64
2020/12/18 04:25:51;;;;;;;1.25;0.43;;;28.20;73.90;;;;;;5114316;28;20047;-62
2020/12/18 04:28:19;;;;;;;1.27;0.63;;;28.20;73.20;;;;;;5114488;28;20051;-63
2020/12/18 04:30:46;;;;;;;0.80;0.60;;;28.20;74.30;;;;;;5114738;28;20441;-64
2020/12/18 04:33:14;;;;;;;1.17;0.50;;;28.10;73.80;;;;;;5114296;28;20032;-63
2020/12/18 04:35:41;;;;;;;1.25;0.70;;;28.10;74.50;;;;;;5114206;28;20024;-63
2020/12/18 04:38:13;;;;;;;0.43;0.40;;;28.20;71.70;;;;;;5114502;28;20048;-67
2020/12/18 04:40:41;;;;;;;1.38;0.80;;;28.30;73.50;;;;;;5114516;28;20050;-65
2020/12/18 04:43:09;;;;;;;1.17;0.70;;;28.20;74.00;;;;;;5114511;28;20069;-67
2020/12/18 04:45:37;;;;;;;1.80;0.60;;;28.20;73.90;;;;;;5113874;28;20110;-67
2020/12/18 04:48:11;;;;;;;1.42;0.50;;;28.20;73.40;;;;;;5114235;28;20019;-66
2020/12/18 04:50:38;;;;;;;0.80;0.57;;;28.10;73.20;;;;;;5114286;28;20030;-66
2020/12/18 04:53:06;;;;;;;0.82;0.50;;;28.10;73.60;;;;;;5113808;28;20031;-66
2020/12/18 04:55:36;;;;;;;2.25;0.40;;;28.10;74.10;;;;;;5113436;28;20027;-65
2020/12/18 04:58:04;;;;;;;0.70;0.50;;;27.90;74.60;;;;;;5113806;28;20071;-65
2020/12/18 05:00:31;;;;;;;2.20;0.90;;;27.90;75.60;;;;;;5113838;28;20397;-64
2020/12/18 05:03:01;;;;;;;1.95;0.63;;;27.80;75.20;;;;;;5113236;28;20095;-66
2020/12/18 05:05:28;;;;;;;1.58;0.63;;;27.80;75.30;;;;;;5113274;28;20019;-65
2020/12/18 05:07:56;;;;;;;0.90;0.57;;;27.80;75.40;;;;;;5113546;28;20103;-66
2020/12/18 05:10:23;;;;;;;1.75;0.55;;;27.80;75.60;;;;;;5095062;28;20408;-66
2020/12/18 05:12:51;;;;;;;0.95;0.50;;;27.70;75.50;;;;;;5113561;28;20032;-66
2020/12/18 05:15:19;;;;;;;0.80;0.60;;;27.60;76.10;;;;;;5112956;28;20038;-67
2020/12/18 05:17:47;;;;;;;1.10;0.52;;;27.60;76.40;;;;;;5113164;28;20118;-68
2020/12/18 05:20:16;;;;;;;1.23;0.52;;;27.50;76.60;;;;;;5113283;28;20032;-66
2020/12/18 05:22:43;;;;;;;0.95;0.68;;;27.40;76.60;;;;;;5113226;28;20167;-65
2020/12/18 05:25:11;;;;;;;2.53;0.60;;;27.50;76.70;;;;;;5113140;28;20020;-65
2020/12/18 05:27:42;;;;;;;1.58;0.60;;;27.50;76.00;;;;;;5113241;28;20027;-64
2020/12/18 05:30:09;;;;;;;0.85;0.63;;;27.40;76.40;;;;;;5113365;28;20024;-66
2020/12/18 05:32:37;;;;;;;1.77;0.57;;;27.40;77.20;;;;;;5113375;28;20200;-66
2020/12/18 05:35:06;;;;;;;1.65;0.50;;;27.30;76.70;;;;;;5113169;28;20497;-66
2020/12/18 05:37:40;;;;;;;1.17;0.68;;;27.30;77.30;;;;;;5112128;28;20120;-64
2020/12/18 05:40:07;;;;;;;2.58;0.70;;;27.30;77.50;;;;;;5112983;28;20020;-66
2020/12/18 05:42:46;;;;;;;2.17;0.70;;;27.40;76.40;;;;;;5112778;28;20025;-66
2020/12/18 05:45:19;;;;;;;2.45;0.50;;;27.30;77.00;;;;;;5113222;28;20023;-66
2020/12/18 05:47:56;;;;;;;1.27;0.57;;;27.30;77.50;;;;;;5113074;28;20023;-69
2020/12/18 05:50:37;;;;;;;0.65;0.57;;;27.20;77.60;;;;;;5112590;28;20533;-66
2020/12/18 05:53:06;;;;;;;3.60;0.88;;;27.20;77.50;;;;;;5112875;28;20027;-66
2020/12/18 05:55:45;;;;;;;0.50;0.47;;;27.20;78.00;;;;;;5112610;28;20036;-67
2020/12/18 05:58:13;;;;;;;0.80;0.50;;;27.20;77.40;;;;;;5112218;28;20031;-65
2020/12/18 06:00:41;;;;;;;0.77;0.50;;;27.20;77.30;;;;;;5112504;28;20054;-67
2020/12/18 06:03:11;;;;;;;1.73;0.63;;;27.20;77.60;;;;;;5112792;28;20346;-65
2020/12/18 06:05:39;;;;;;;4.07;0.70;;;27.20;77.80;;;;;;5094673;28;20023;-66
2020/12/18 06:08:17;;;;;;;0.40;0.40;;;27.20;77.80;;;;;;5112696;28;20096;-65
2020/12/18 06:10:45;;;;;;;1.35;0.60;;;27.30;77.90;;;;;;5112740;28;20061;-66
2020/12/18 06:13:13;;;;;;;1.05;0.35;;;27.20;78.10;;;;;;5112352;28;20019;-66
2020/12/18 06:15:41;;;;;;;1.55;0.57;;;27.20;78.30;;;;;;5112000;28;20032;-64
2020/12/18 06:18:16;;;;;;;4.75;0.80;;;27.20;78.10;;;;;;5090690;28;20040;-66
2020/12/18 06:20:44;;;;;;;1.77;0.73;;;27.20;77.90;;;;;;5092508;28;20031;-63
2020/12/18 06:23:16;;;;;;;0.93;0.70;;;27.20;77.90;;;;;;5091979;28;20027;-65
2020/12/18 06:25:43;;;;;;;1.50;0.70;;;27.20;78.10;;;;;;5090680;28;20048;-66
2020/12/18 06:28:11;;;;;;;1.10;0.60;;;27.20;77.60;;;;;;5091749;28;20498;-62
2020/12/18 06:30:38;;;;;;;3.13;1.00;;;27.20;77.60;;;;;;5091562;28;20020;-65
2020/12/18 06:33:06;;;;;;;2.10;0.80;;;27.20;77.40;;;;;;5091975;28;20042;-66
2020/12/18 06:35:38;;;;;;;1.00;0.60;;;27.10;77.20;;;;;;5091915;28;20509;-67
2020/12/18 06:38:15;;;;;;;0.77;0.45;;;27.10;77.70;;;;;;5089338;28;20405;-67
2020/12/18 06:40:43;;;;;;;2.35;0.95;;;27.00;78.60;;;;;;5091498;28;20036;-63
2020/12/18 06:43:11;;;;;;;2.55;1.20;;;27.00;77.90;;;;;;5092271;28;20020;-65
2020/12/18 06:45:39;;;;;;;7.65;0.98;;;26.90;78.50;;;;;;5091341;28;20031;-65
2020/12/18 06:48:25;;;;;;;6.50;0.80;;;26.80;78.10;;;;;;5091725;28;20434;-67
2020/12/18 06:50:53;;;;;;;2.05;0.90;;;26.80;79.10;;;;;;5095283;28;20028;-67
2020/12/18 06:53:20;;;;;;;4.20;1.00;;;26.70;79.10;;;;;;5096183;28;20031;-65
2020/12/18 06:55:47;;;;;;;2.65;0.90;;;26.70;79.00;;;;;;5095832;28;20028;-67
2020/12/18 06:58:17;;;;;;;2.13;0.77;;;26.60;79.50;;;;;;5095824;28;20024;-65
2020/12/18 07:00:47;;;;;;;1.98;0.70;;;26.60;79.50;;;;;;5096376;28;20135;-66
2020/12/18 07:03:33;;;;;;;3.40;1.27;;;26.60;80.20;;;;;;5095430;28;20027;-68
2020/12/18 07:06:04;;;;;;;1.95;0.80;;;26.50;80.10;;;;;;5095823;28;20047;-66
2020/12/18 07:08:33;;;;;;;2.67;1.25;;;26.50;80.80;;;;;;5095649;28;20024;-65
2020/12/18 07:11:03;;;;;;;2.33;1.00;;;26.40;80.50;;;;;;5095629;28;20036;-65
2020/12/18 07:13:32;;;;;;;4.72;1.52;;;26.40;80.80;;;;;;5095373;28;20382;-65
2020/12/18 07:16:03;;;;;;;3.00;1.00;;;26.40;80.90;;;;;;5095591;28;20024;-67
2020/12/18 07:18:34;;;;;;;2.63;1.02;;;26.40;81.30;;;;;;5093963;28;20108;-66
2020/12/18 07:21:09;;;;;;;3.88;1.35;;;26.30;81.40;;;;;;5095849;28;20454;-66
2020/12/18 07:23:39;;;;;;;2.47;1.63;;;26.30;81.50;;;;;;5095446;28;20125;-68
2020/12/18 07:26:07;;;;;;;4.88;1.40;;;26.30;81.70;;;;;;5095392;28;20226;-67
2020/12/18 07:28:42;;;;;;;6.88;1.27;;;26.30;81.80;;;;;;5094963;28;20191;-66
2020/12/18 07:31:23;;;;;;;3.10;1.40;;;26.20;81.80;;;;;;5095247;28;20035;-70
2020/12/18 07:33:59;;;;;;;5.13;1.35;;;26.20;81.90;;;;;;5094791;28;20028;-66
2020/12/18 07:36:28;;;;;;;4.38;1.30;;;26.20;82.20;;;;;;5093912;28;20050;-67
2020/12/18 07:38:59;;;;;;;4.82;1.40;;;26.20;82.20;;;;;;5093853;28;20398;-67
2020/12/18 07:41:29;;;;;;;2.97;1.08;;;26.20;82.30;;;;;;5094370;28;20605;-67
2020/12/18 07:44:08;;;;;;;4.28;1.40;;;26.20;82.40;;;;;;5095370;28;20054;-67
2020/12/18 07:46:38;;;;;;;6.22;1.60;;;26.10;82.40;;;;;;5094878;28;20466;-66
2020/12/18 07:49:10;;;;;;;6.85;1.70;;;26.10;82.60;;;;;;5095392;28;20042;-67
2020/12/18 07:51:40;;;;;;;7.57;1.80;;;26.10;82.50;;;;;;5094797;28;20031;-66
2020/12/18 07:54:08;;;;;;;5.30;1.65;;;26.10;82.70;;;;;;5094652;28;20481;-67
2020/12/18 07:56:36;;;;;;;4.80;1.30;;;26.10;82.70;;;;;;5095191;28;20052;-65
2020/12/18 07:59:11;;;;;;;4.10;1.75;;;26.10;82.70;;;;;;5095727;28;20173;-66
2020/12/18 08:01:39;;;;;;;5.43;1.70;;;26.10;82.70;;;;;;5094689;28;20027;-63
2020/12/18 08:04:13;;;;;;;5.72;1.77;;;26.10;82.80;;;;;;5095166;28;20056;-63
2020/12/18 08:06:44;;;;;;;6.50;1.35;;;26.10;82.90;;;;;;5094452;28;20108;-66
2020/12/18 08:09:16;;;;;;;8.18;1.98;;;26.10;82.90;;;;;;5094712;28;20382;-64
2020/12/18 08:11:46;;;;;;;4.88;1.55;;;26.10;83.00;;;;;;5094037;28;20534;-62
2020/12/18 08:14:14;;;;;;;4.97;1.63;;;26.10;83.10;;;;;;5094779;28;20043;-66
2020/12/18 08:16:42;;;;;;;6.32;1.88;;;26.00;83.00;;;;;;5094533;28;20435;-65
2020/12/18 08:19:13;;;;;;;5.03;1.77;;;26.00;83.10;;;;;;5109329;28;20047;-66
2020/12/18 08:21:44;;;;;;;6.63;2.10;;;26.00;83.10;;;;;;5114585;28;20043;-64
2020/12/18 08:24:13;;;;;;;5.95;2.30;;;26.00;83.30;;;;;;5114690;28;20032;-64
2020/12/18 08:26:56;;;;;;;6.03;2.42;;;26.00;83.30;;;;;;5114254;28;20074;-65
2020/12/18 08:29:24;;;;;;;9.40;2.13;;;26.00;83.40;;;;;;5114410;28;20020;-64
2020/12/18 08:31:56;;;;;;;6.63;2.42;;;25.90;83.30;;;;;;5114466;28;20020;-65
2020/12/18 08:34:29;;;;;;;8.85;2.35;;;25.90;83.50;;;;;;5114483;28;20498;-63
2020/12/18 08:36:58;;;;;;;9.40;2.35;;;25.90;83.50;;;;;;5106260;28;20091;-67
2020/12/18 08:39:30;;;;;;;7.88;2.25;;;25.80;84.00;;;;;;5093920;28;20027;-65
2020/12/18 08:41:58;;;;;;;5.40;2.33;;;25.80;83.80;;;;;;5111133;28;20020;-63
2020/12/18 08:44:29;;;;;;;7.97;2.40;;;25.80;83.90;;;;;;5113354;28;20027;-66
2020/12/18 08:46:58;;;;;;;10.20;2.72;;;25.80;83.90;;;;;;5113391;28;20024;-66
2020/12/18 08:49:27;;;;;;;12.07;3.00;;;25.80;83.90;;;;;;5113160;28;20175;-67
2020/12/18 08:51:57;;;;;;;8.15;2.15;;;25.70;83.80;;;;;;5114014;28;20093;-64
2020/12/18 08:54:34;;;;;;;9.52;2.85;;;25.70;83.90;;;;;;5113766;28;20081;-66
2020/12/18 08:57:10;;;;;;;9.95;2.75;;;25.70;83.90;;;;;;5113921;28;20049;-63
2020/12/18 08:59:38;;;;;;;9.07;3.00;;;25.70;83.90;;;;;;5113725;28;20024;-64
2020/12/18 09:02:14;;;;;;;9.45;2.65;;;25.70;84.00;;;;;;5114026;28;20035;-66
2020/12/18 09:04:42;;;;;;;8.43;3.15;;;25.70;84.00;;;;;;5113773;28;20020;-66
2020/12/18 09:07:09;;;;;;;8.82;2.83;;;25.70;84.00;;;;;;5096247;28;20263;-64
2020/12/18 09:09:36;;;;;;;9.27;2.72;;;25.60;84.10;;;;;;5113776;28;20022;-64
2020/12/18 09:12:16;;;;;;;6.82;2.67;;;25.60;84.30;;;;;;5113709;28;20028;-68
2020/12/18 09:14:43;;;;;;;8.77;2.58;;;25.60;84.20;;;;;;5113916;28;20072;-68
2020/12/18 09:17:11;;;;;;;8.02;2.40;;;25.60;84.20;;;;;;5113480;28;20416;-65
2020/12/18 09:19:48;;;;;;;5.80;2.17;;;25.50;84.30;;;;;;5113552;28;20496;-67
2020/12/18 09:22:15;;;;;;;7.30;2.30;;;25.50;84.40;;;;;;5095572;28;20031;-64
2020/12/18 09:24:42;;;;;;;9.13;3.00;;;25.50;84.30;;;;;;5113578;28;20371;-66
2020/12/18 09:27:11;;;;;;;8.07;2.50;;;25.50;84.30;;;;;;5113641;28;20023;-64
2020/12/18 09:29:39;;;;;;;8.88;3.17;;;25.50;84.30;;;;;;5112844;28;20121;-65
2020/12/18 09:32:07;;;;;;;8.80;2.88;;;25.40;84.60;;;;;;5113100;28;20463;-67
2020/12/18 09:34:34;;;;;;;8.00;2.90;;;25.40;84.50;;;;;;5111682;28;20032;-65
2020/12/18 09:37:11;;;;;;;6.90;2.22;;;25.40;84.40;;;;;;5109334;28;20023;-65
2020/12/18 09:39:39;;;;;;;7.07;2.53;;;25.40;84.50;;;;;;5112222;28;20423;-67
2020/12/18 09:42:06;;;;;;;9.73;3.00;;;25.40;84.60;;;;;;5112144;28;20031;-63
2020/12/18 09:44:33;;;;;;;8.40;2.50;;;25.40;84.80;;;;;;5112575;28;20034;-64
2020/12/18 09:47:01;;;;;;;8.25;2.63;;;25.30;84.50;;;;;;5112296;28;20030;-64
2020/12/18 09:49:28;;;;;;;8.68;2.80;;;25.30;84.60;;;;;;5113107;28;20027;-65
2020/12/18 09:51:55;;;;;;;6.97;3.03;;;25.30;84.70;;;;;;5113272;28;20027;-64
2020/12/18 09:54:23;;;;;;;6.35;2.63;;;25.30;84.80;;;;;;5112887;28;20121;-65
2020/12/18 09:56:54;;;;;;;8.45;2.92;;;25.30;84.80;;;;;;5113085;28;20023;-65
2020/12/18 09:59:21;;;;;;;8.25;3.20;;;25.30;84.90;;;;;;5113167;28;20489;-66
2020/12/18 10:01:52;;;;;;;8.30;2.97;;;25.20;84.90;;;;;;5112944;28;20031;-64
2020/12/18 10:04:20;;;;;;;8.10;3.05;;;25.20;85.00;;;;;;5112953;28;20031;-67
2020/12/18 10:06:48;;;;;;;8.00;2.92;;;25.20;85.00;;;;;;5112875;28;20031;-66
2020/12/18 10:09:16;;;;;;;8.55;2.92;;;25.20;84.90;;;;;;5112874;28;20019;-64
2020/12/18 10:11:43;;;;;;;7.95;3.25;;;25.20;85.10;;;;;;5112629;28;20024;-63
2020/12/18 10:14:10;;;;;;;10.00;3.70;;;25.20;85.00;;;;;;5112566;28;20024;-64
2020/12/18 10:16:38;;;;;;;8.65;3.35;;;25.20;85.00;;;;;;5112644;28;20047;-65
2020/12/18 10:19:05;;;;;;;11.02;3.50;;;25.20;85.00;;;;;;5112801;28;20429;-65
2020/12/18 10:21:35;;;;;;;7.50;3.03;;;25.20;85.10;;;;;;5112609;28;20031;-65
2020/12/18 10:24:02;;;;;;;6.88;2.95;;;25.10;85.00;;;;;;5112495;28;20081;-64
2020/12/18 10:26:30;;;;;;;8.65;3.20;;;25.20;85.10;;;;;;5112316;28;20182;-65
2020/12/18 10:28:57;;;;;;;9.73;3.42;;;25.10;85.10;;;;;;5094368;28;20023;-63
2020/12/18 10:31:24;;;;;;;14.40;4.05;;;25.10;85.10;;;;;;5112275;28;20027;-63
2020/12/18 10:33:52;;;;;;;11.43;3.53;;;25.10;85.10;;;;;;5112555;28;20107;-66
2020/12/18 10:36:19;;;;;;;11.57;3.55;;;25.10;85.20;;;;;;5112542;28;20016;-65
2020/12/18 10:38:46;;;;;;;12.25;3.40;;;25.10;85.00;;;;;;5112926;28;20024;-65
2020/12/18 10:41:14;;;;;;;11.07;3.38;;;25.00;85.10;;;;;;5112445;28;20015;-66
2020/12/18 10:43:41;;;;;;;8.52;3.22;;;25.00;85.10;;;;;;5112434;28;20074;-65
2020/12/18 10:46:12;;;;;;;8.25;2.83;;;25.00;85.20;;;;;;5094418;28;20027;-64
2020/12/18 10:48:39;;;;;;;7.72;2.95;;;25.00;85.20;;;;;;5112715;28;20088;-64
2020/12/18 10:51:06;;;;;;;10.57;3.35;;;25.00;85.20;;;;;;5112604;28;20032;-67
2020/12/18 10:53:34;;;;;;;8.45;3.10;;;25.00;85.30;;;;;;5112166;28;20405;-65
2020/12/18 10:56:02;;;;;;;7.68;3.03;;;25.00;85.20;;;;;;5112460;28;20031;-66
2020/12/18 10:58:29;;;;;;;8.20;3.17;;;25.00;85.20;;;;;;5112386;28;20099;-64
2020/12/18 11:00:56;;;;;;;8.63;3.50;;;25.00;85.20;;;;;;5111931;28;20415;-63
2020/12/18 11:03:24;;;;;;;6.88;2.70;;;25.00;85.20;;;;;;5112262;28;20030;-64
2020/12/18 11:05:51;;;;;;;8.75;3.25;;;25.00;85.80;;;;;;5112370;28;20020;-63
2020/12/18 11:08:18;;;;;;;10.30;4.22;;;25.00;85.20;;;;;;5112087;28;20126;-66
2020/12/18 11:10:46;;;;;;;10.32;3.45;;;25.00;85.20;;;;;;5112243;28;20031;-65
2020/12/18 11:13:13;;;;;;;8.15;2.83;;;25.00;85.20;;;;;;5111950;28;20035;-65
2020/12/18 11:15:43;;;;;;;8.75;3.30;;;25.00;85.10;;;;;;5093771;28;20527;-65
2020/12/18 11:18:10;;;;;;;11.05;3.70;;;24.90;85.20;;;;;;5112374;28;20048;-64
2020/12/18 11:20:37;;;;;;;13.18;4.28;;;24.90;85.10;;;;;;5112112;28;20388;-64
2020/12/18 11:23:05;;;;;;;8.07;3.22;;;24.90;85.10;;;;;;5112470;28;20015;-64
2020/12/18 11:25:32;;;;;;;9.77;3.03;;;24.90;85.20;;;;;;5111595;28;20022;-64
2020/12/18 11:27:59;;;;;;;9.02;3.50;;;24.90;85.10;;;;;;5112342;28;20072;-66
2020/12/18 11:30:27;;;;;;;9.57;3.75;;;24.90;85.00;;;;;;5112066;28;20115;-63
2020/12/18 11:32:54;;;;;;;8.13;2.97;;;24.90;85.10;;;;;;5112070;28;20072;-65
2020/12/18 11:35:22;;;;;;;9.95;4.03;;;24.90;85.10;;;;;;5111992;28;20028;-63
2020/12/18 11:37:49;;;;;;;8.30;3.30;;;24.90;84.90;;;;;;5116027;28;20055;-66
2020/12/18 11:40:16;;;;;;;8.45;3.10;;;24.90;85.10;;;;;;5115208;28;20110;-65
2020/12/18 11:42:43;;;;;;;8.40;2.95;;;24.90;85.20;;;;;;5115484;28;20066;-67
2020/12/18 11:45:11;;;;;;;12.32;3.70;;;24.90;85.10;;;;;;5115294;28;20437;-63
2020/12/18 11:47:39;;;;;;;10.02;3.90;;;24.90;85.10;;;;;;5115583;28;20400;-64
2020/12/18 11:50:07;;;;;;;9.98;3.80;;;24.90;85.10;;;;;;5115788;28;20023;-66
2020/12/18 11:52:34;;;;;;;9.82;3.28;;;24.90;85.10;;;;;;5115592;28;20117;-65
2020/12/18 11:55:01;;;;;;;9.07;3.53;;;24.80;85.10;;;;;;5115390;28;20062;-62
2020/12/18 11:57:29;;;;;;;9.95;4.00;;;24.80;85.10;;;;;;5115064;28;20020;-65
2020/12/18 11:59:56;;;;;;;9.00;3.45;;;24.80;85.00;;;;;;5115931;28;20023;-63
2020/12/18 12:02:24;;;;;;;9.27;2.75;;;24.80;85.10;;;;;;5097042;28;20054;-65
2020/12/18 12:04:51;;;;;;;9.45;3.15;;;24.80;85.10;;;;;;5114975;28;20031;-66
2020/12/18 12:07:18;;;;;;;11.45;3.50;;;24.80;85.00;;;;;;5097147;28;20019;-65
2020/12/18 12:09:46;;;;;;;9.45;3.55;;;24.80;85.10;;;;;;5115325;28;20024;-66
2020/12/18 12:12:13;;;;;;;8.10;3.63;;;24.80;85.10;;;;;;5115118;28;20060;-64
2020/12/18 12:14:40;;;;;;;9.82;3.75;;;24.80;85.10;;;;;;5115221;28;20501;-64
2020/12/18 12:17:08;;;;;;;9.10;3.40;;;24.70;85.10;;;;;;5115060;28;20032;-65
2020/12/18 12:19:36;;;;;;;8.63;3.15;;;24.70;85.10;;;;;;5114738;28;20048;-65
2020/12/18 12:22:03;;;;;;;7.30;2.90;;;24.70;85.10;;;;;;5114895;28;20024;-64
2020/12/18 12:24:30;;;;;;;10.18;4.43;;;24.70;85.10;;;;;;5115304;28;20035;-63
2020/12/18 12:26:58;;;;;;;11.80;2.75;;;24.70;85.10;;;;;;5114794;28;20020;-65
2020/12/18 12:29:25;;;;;;;10.35;3.60;;;24.70;85.00;;;;;;5114653;28;20071;-65
2020/12/18 12:31:52;;;;;;;8.38;3.08;;;24.70;85.20;;;;;;5114799;28;20024;-65
2020/12/18 12:34:20;;;;;;;10.25;3.75;;;24.70;85.30;;;;;;5114541;28;20031;-66
2020/12/18 12:36:47;;;;;;;8.85;3.20;;;24.70;85.30;;;;;;5111747;28;20042;-65
2020/12/18 12:39:14;;;;;;;6.93;3.33;;;24.60;85.30;;;;;;5114315;28;20038;-66
2020/12/18 12:41:42;;;;;;;7.90;3.42;;;24.60;85.40;;;;;;5114016;28;20433;-63
2020/12/18 12:44:09;;;;;;;9.40;3.17;;;24.60;85.40;;;;;;5114761;28;20054;-63
2020/12/18 12:46:37;;;;;;;8.50;3.40;;;24.60;85.50;;;;;;5095624;28;20066;-66
2020/12/18 12:49:04;;;;;;;9.07;3.47;;;24.60;85.50;;;;;;5114364;28;20027;-66
2020/12/18 12:51:32;;;;;;;7.60;3.20;;;24.50;85.50;;;;;;5114343;28;20355;-65
2020/12/18 12:53:59;;;;;;;10.27;3.00;;;24.50;85.60;;;;;;5114333;28;20031;-67